sensor_id;sensor_type;location;lat;lon;timestamp;pressure;altitude;pressure_sealevel;temperature;humidity
42761;BME280;31672;47.638;19.026;2023-07-24T00:04:07;99836.09;;;20.88;80.52
42761;BME280;31672;47.638;19.026;2023-07-24T00:09:11;99839.88;;;20.87;81.05
42761;BME280;31672;47.638;19.026;2023-07-24T00:14:16;99825.19;;;20.83;81.81
42761;BME280;31672;47.638;19.026;2023-07-24T00:19:19;99824.03;;;20.79;82.21
42761;BME280;31672;47.638;19.026;2023-07-24T00:24:23;99825.38;;;20.76;82.65
42761;BME280;31672;47.638;19.026;2023-07-24T00:29:27;99816.59;;;20.69;83.06
42761;BME280;31672;47.638;19.026;2023-07-24T00:34:30;99812.03;;;20.70;83.46
42761;BME280;31672;47.638;19.026;2023-07-24T00:39:34;99804.75;;;20.70;84.59
42761;BME280;31672;47.638;19.026;2023-07-24T00:44:37;99802.84;;;20.71;85.56
42761;BME280;31672;47.638;19.026;2023-07-24T00:49:41;99797.78;;;20.74;85.90
42761;BME280;31672;47.638;19.026;2023-07-24T00:54:45;99797.19;;;20.72;85.57
42761;BME280;31672;47.638;19.026;2023-07-24T00:59:50;99798.28;;;20.71;85.85
42761;BME280;31672;47.638;19.026;2023-07-24T01:04:53;99785.84;;;20.70;85.51
42761;BME280;31672;47.638;19.026;2023-07-24T01:09:57;99789.25;;;20.66;85.62
42761;BME280;31672;47.638;19.026;2023-07-24T01:15:33;99784.28;;;20.57;86.31
42761;BME280;31672;47.638;19.026;2023-07-24T01:20:51;99783.38;;;20.52;86.61
42761;BME280;31672;47.638;19.026;2023-07-24T01:25:58;99774.78;;;20.43;87.34
42761;BME280;31672;47.638;19.026;2023-07-24T01:31:02;99786.09;;;20.40;89.14
42761;BME280;31672;47.638;19.026;2023-07-24T01:36:06;99774.38;;;20.35;90.04
42761;BME280;31672;47.638;19.026;2023-07-24T01:41:11;99770.06;;;20.34;90.73
42761;BME280;31672;47.638;19.026;2023-07-24T01:46:15;99770.88;;;20.34;91.41
42761;BME280;31672;47.638;19.026;2023-07-24T01:51:18;99764.88;;;20.32;91.33
42761;BME280;31672;47.638;19.026;2023-07-24T01:56:22;99765.47;;;20.34;91.85
42761;BME280;31672;47.638;19.026;2023-07-24T02:01:25;99774.59;;;20.33;92.19
42761;BME280;31672;47.638;19.026;2023-07-24T02:06:29;99773.78;;;20.32;92.26
42761;BME280;31672;47.638;19.026;2023-07-24T02:11:33;99771.03;;;20.27;92.72
42761;BME280;31672;47.638;19.026;2023-07-24T02:16:37;99774.69;;;20.21;93.36
42761;BME280;31672;47.638;19.026;2023-07-24T02:21:40;99775.72;;;20.20;93.73
42761;BME280;31672;47.638;19.026;2023-07-24T02:26:44;99778.66;;;20.19;94.27
42761;BME280;31672;47.638;19.026;2023-07-24T02:31:49;99768.84;;;20.13;95.48
42761;BME280;31672;47.638;19.026;2023-07-24T02:36:53;99778.56;;;20.14;96.34
42761;BME280;31672;47.638;19.026;2023-07-24T02:41:57;99782.81;;;20.10;96.30
42761;BME280;31672;47.638;19.026;2023-07-24T02:47:00;99781.09;;;20.03;95.58
42761;BME280;31672;47.638;19.026;2023-07-24T02:52:05;99773.34;;;19.95;96.06
42761;BME280;31672;47.638;19.026;2023-07-24T02:57:08;99774.41;;;19.94;96.43
42761;BME280;31672;47.638;19.026;2023-07-24T03:02:12;99767.28;;;19.88;98.02
42761;BME280;31672;47.638;19.026;2023-07-24T03:07:16;99769.72;;;19.90;98.52
42761;BME280;31672;47.638;19.026;2023-07-24T03:12:20;99777.81;;;19.90;98.47
42761;BME280;31672;47.638;19.026;2023-07-24T03:17:23;99768.34;;;19.87;98.65
42761;BME280;31672;47.638;19.026;2023-07-24T03:22:27;99759.09;;;19.83;98.88
42761;BME280;31672;47.638;19.026;2023-07-24T03:27:30;99762.75;;;19.77;99.00
42761;BME280;31672;47.638;19.026;2023-07-24T03:32:37;99757.59;;;19.75;99.43
42761;BME280;31672;47.638;19.026;2023-07-24T03:37:41;99763.22;;;19.74;99.49
42761;BME280;31672;47.638;19.026;2023-07-24T03:42:45;99765.81;;;19.69;99.96
42761;BME280;31672;47.638;19.026;2023-07-24T03:47:48;99763.94;;;19.69;100.00
42761;BME280;31672;47.638;19.026;2023-07-24T03:52:52;99754.69;;;19.65;100.00
42761;BME280;31672;47.638;19.026;2023-07-24T03:57:55;99761.50;;;19.68;100.00
42761;BME280;31672;47.638;19.026;2023-07-24T04:02:59;99766.97;;;19.73;100.00
42761;BME280;31672;47.638;19.026;2023-07-24T04:08:03;99771.88;;;19.76;100.00
42761;BME280;31672;47.638;19.026;2023-07-24T04:13:07;99758.28;;;19.83;100.00
42761;BME280;31672;47.638;19.026;2023-07-24T04:18:11;99767.13;;;19.95;100.00
42761;BME280;31672;47.638;19.026;2023-07-24T04:23:14;99759.81;;;20.07;100.00
42761;BME280;31672;47.638;19.026;2023-07-24T04:28:18;99751.69;;;20.19;100.00
42761;BME280;31672;47.638;19.026;2023-07-24T04:33:22;99750.25;;;20.28;100.00
42761;BME280;31672;47.638;19.026;2023-07-24T04:38:26;99747.16;;;20.36;100.00
42761;BME280;31672;47.638;19.026;2023-07-24T04:43:30;99739.47;;;20.45;100.00
42761;BME280;31672;47.638;19.026;2023-07-24T04:48:33;99742.13;;;20.56;100.00
42761;BME280;31672;47.638;19.026;2023-07-24T04:53:37;99754.25;;;20.71;100.00
42761;BME280;31672;47.638;19.026;2023-07-24T04:58:40;99746.38;;;20.86;100.00
42761;BME280;31672;47.638;19.026;2023-07-24T05:03:44;99752.59;;;21.03;100.00
42761;BME280;31672;47.638;19.026;2023-07-24T05:08:47;99759.63;;;21.21;100.00
42761;BME280;31672;47.638;19.026;2023-07-24T05:13:51;99755.84;;;21.39;99.58
42761;BME280;31672;47.638;19.026;2023-07-24T05:18:54;99764.47;;;21.58;99.29
42761;BME280;31672;47.638;19.026;2023-07-24T05:23:58;99761.72;;;21.75;97.99
42761;BME280;31672;47.638;19.026;2023-07-24T05:29:01;99765.66;;;21.89;97.21
42761;BME280;31672;47.638;19.026;2023-07-24T05:34:05;99753.16;;;22.05;96.29
42761;BME280;31672;47.638;19.026;2023-07-24T05:39:08;99753.28;;;22.15;94.16
42761;BME280;31672;47.638;19.026;2023-07-24T05:44:12;99758.84;;;22.30;92.59
42761;BME280;31672;47.638;19.026;2023-07-24T05:49:15;99755.75;;;22.43;92.77
42761;BME280;31672;47.638;19.026;2023-07-24T05:54:19;99748.56;;;22.59;91.84
42761;BME280;31672;47.638;19.026;2023-07-24T05:59:22;99747.88;;;22.74;91.23
42761;BME280;31672;47.638;19.026;2023-07-24T06:04:26;99749.84;;;22.84;90.33
42761;BME280;31672;47.638;19.026;2023-07-24T06:09:30;99732.66;;;23.00;89.79
42761;BME280;31672;47.638;19.026;2023-07-24T06:14:33;99727.91;;;23.17;88.70
42761;BME280;31672;47.638;19.026;2023-07-24T06:19:37;99731.75;;;23.32;87.68
42761;BME280;31672;47.638;19.026;2023-07-24T06:24:40;99729.41;;;23.45;87.43
42761;BME280;31672;47.638;19.026;2023-07-24T06:29:44;99719.44;;;23.61;85.96
42761;BME280;31672;47.638;19.026;2023-07-24T06:34:48;99708.69;;;23.76;85.87
42761;BME280;31672;47.638;19.026;2023-07-24T06:39:51;99722.25;;;23.87;85.03
42761;BME280;31672;47.638;19.026;2023-07-24T06:44:55;99723.41;;;24.01;84.17
42761;BME280;31672;47.638;19.026;2023-07-24T06:49:58;99721.78;;;24.05;83.60
42761;BME280;31672;47.638;19.026;2023-07-24T06:55:02;99721.00;;;24.20;84.04
42761;BME280;31672;47.638;19.026;2023-07-24T07:00:07;99723.22;;;24.43;83.94
42761;BME280;31672;47.638;19.026;2023-07-24T07:05:14;99707.75;;;24.59;82.18
42761;BME280;31672;47.638;19.026;2023-07-24T07:10:18;99705.00;;;24.79;81.33
42761;BME280;31672;47.638;19.026;2023-07-24T07:15:21;99692.47;;;24.94;79.97
42761;BME280;31672;47.638;19.026;2023-07-24T07:20:25;99687.31;;;25.13;80.15
42761;BME280;31672;47.638;19.026;2023-07-24T07:25:28;99677.72;;;25.30;78.23
42761;BME280;31672;47.638;19.026;2023-07-24T07:30:32;99679.31;;;25.47;78.38
42761;BME280;31672;47.638;19.026;2023-07-24T07:35:36;99679.78;;;25.64;77.13
42761;BME280;31672;47.638;19.026;2023-07-24T07:40:40;99688.69;;;25.85;76.60
42761;BME280;31672;47.638;19.026;2023-07-24T07:45:43;99682.59;;;26.03;75.63
42761;BME280;31672;47.638;19.026;2023-07-24T07:50:51;99668.00;;;26.23;74.87
42761;BME280;31672;47.638;19.026;2023-07-24T07:55:56;99660.75;;;26.48;74.03
42761;BME280;31672;47.638;19.026;2023-07-24T08:01:06;99674.19;;;26.68;73.16
42761;BME280;31672;47.638;19.026;2023-07-24T08:06:10;99659.72;;;26.97;71.55
42761;BME280;31672;47.638;19.026;2023-07-24T08:11:14;99662.47;;;27.20;71.16
42761;BME280;31672;47.638;19.026;2023-07-24T08:16:18;99654.25;;;27.26;69.47
42761;BME280;31672;47.638;19.026;2023-07-24T08:21:22;99644.19;;;27.21;70.04
42761;BME280;31672;47.638;19.026;2023-07-24T08:26:26;99648.94;;;27.34;70.32
42761;BME280;31672;47.638;19.026;2023-07-24T08:31:30;99642.25;;;27.45;69.59
42761;BME280;31672;47.638;19.026;2023-07-24T08:36:34;99651.56;;;27.63;69.72
42761;BME280;31672;47.638;19.026;2023-07-24T08:41:38;99634.84;;;27.70;67.63
42761;BME280;31672;47.638;19.026;2023-07-24T08:46:43;99639.06;;;27.81;68.92
42761;BME280;31672;47.638;19.026;2023-07-24T08:51:49;99624.50;;;28.05;67.64
42761;BME280;31672;47.638;19.026;2023-07-24T08:56:53;99616.50;;;28.27;66.82
42761;BME280;31672;47.638;19.026;2023-07-24T09:01:58;99605.94;;;28.39;64.87
42761;BME280;31672;47.638;19.026;2023-07-24T09:07:02;99598.78;;;28.57;64.23
42761;BME280;31672;47.638;19.026;2023-07-24T09:12:06;99591.00;;;28.78;64.14
42761;BME280;31672;47.638;19.026;2023-07-24T09:17:11;99595.59;;;28.96;62.64
42761;BME280;31672;47.638;19.026;2023-07-24T09:22:15;99593.56;;;29.29;61.46
42761;BME280;31672;47.638;19.026;2023-07-24T09:27:26;99594.13;;;29.54;60.25
42761;BME280;31672;47.638;19.026;2023-07-24T09:32:30;99584.09;;;29.85;59.45
42761;BME280;31672;47.638;19.026;2023-07-24T09:37:35;99571.31;;;30.03;56.90
42761;BME280;31672;47.638;19.026;2023-07-24T09:42:39;99556.34;;;30.23;57.52
42761;BME280;31672;47.638;19.026;2023-07-24T09:48:05;99549.84;;;30.50;54.30
42761;BME280;31672;47.638;19.026;2023-07-24T09:53:44;99537.00;;;30.59;49.29
42761;BME280;31672;47.638;19.026;2023-07-24T09:58:52;99532.06;;;30.70;49.75
42761;BME280;31672;47.638;19.026;2023-07-24T10:03:59;99533.09;;;30.83;49.04
42761;BME280;31672;47.638;19.026;2023-07-24T10:09:04;99536.50;;;30.97;48.50
42761;BME280;31672;47.638;19.026;2023-07-24T10:14:10;99519.75;;;31.07;47.41
42761;BME280;31672;47.638;19.026;2023-07-24T10:19:16;99514.13;;;31.30;47.70
42761;BME280;31672;47.638;19.026;2023-07-24T10:24:20;99509.31;;;31.44;47.78
42761;BME280;31672;47.638;19.026;2023-07-24T10:29:43;99503.63;;;31.66;45.41
42761;BME280;31672;47.638;19.026;2023-07-24T10:35:08;99496.84;;;31.64;44.87
42761;BME280;31672;47.638;19.026;2023-07-24T10:40:22;99488.59;;;31.64;44.19
42761;BME280;31672;47.638;19.026;2023-07-24T10:45:26;99483.72;;;31.78;44.63
42761;BME280;31672;47.638;19.026;2023-07-24T10:50:38;99470.09;;;32.08;44.21
42761;BME280;31672;47.638;19.026;2023-07-24T10:55:43;99465.03;;;32.27;42.62
42761;BME280;31672;47.638;19.026;2023-07-24T11:00:47;99462.56;;;32.43;41.22
42761;BME280;31672;47.638;19.026;2023-07-24T11:05:52;99453.66;;;32.46;38.97
42761;BME280;31672;47.638;19.026;2023-07-24T11:10:58;99436.47;;;32.49;40.91
42761;BME280;31672;47.638;19.026;2023-07-24T11:16:08;99426.31;;;32.70;40.59
42761;BME280;31672;47.638;19.026;2023-07-24T11:21:12;99414.34;;;32.96;39.61
42761;BME280;31672;47.638;19.026;2023-07-24T11:26:24;99412.91;;;33.11;39.12
42761;BME280;31672;47.638;19.026;2023-07-24T11:31:37;99407.03;;;33.00;37.84
42761;BME280;31672;47.638;19.026;2023-07-24T11:36:42;99400.03;;;32.82;37.87
42761;BME280;31672;47.638;19.026;2023-07-24T11:41:45;99383.66;;;32.85;37.74
42761;BME280;31672;47.638;19.026;2023-07-24T11:46:49;99380.22;;;33.09;37.65
42761;BME280;31672;47.638;19.026;2023-07-24T11:51:53;99359.59;;;33.36;37.78
42761;BME280;31672;47.638;19.026;2023-07-24T11:57:03;99356.53;;;33.50;36.79
42761;BME280;31672;47.638;19.026;2023-07-24T12:02:18;99338.00;;;33.71;36.34
42761;BME280;31672;47.638;19.026;2023-07-24T12:07:34;99332.50;;;33.84;33.35
42761;BME280;31672;47.638;19.026;2023-07-24T12:12:44;99328.09;;;33.82;32.99
42761;BME280;31672;47.638;19.026;2023-07-24T12:17:49;99326.31;;;33.99;32.83
42761;BME280;31672;47.638;19.026;2023-07-24T12:22:53;99308.59;;;34.12;33.17
42761;BME280;31672;47.638;19.026;2023-07-24T12:27:58;99303.19;;;34.28;33.49
42761;BME280;31672;47.638;19.026;2023-07-24T12:33:02;99302.63;;;34.22;31.29
42761;BME280;31672;47.638;19.026;2023-07-24T12:38:06;99295.28;;;33.90;32.23
42761;BME280;31672;47.638;19.026;2023-07-24T12:43:10;99283.00;;;33.87;32.28
42761;BME280;31672;47.638;19.026;2023-07-24T12:48:13;99263.59;;;34.08;32.73
42761;BME280;31672;47.638;19.026;2023-07-24T12:53:17;99262.03;;;34.35;31.69
42761;BME280;31672;47.638;19.026;2023-07-24T12:58:27;99256.72;;;34.42;33.30
42761;BME280;31672;47.638;19.026;2023-07-24T13:03:31;99246.91;;;34.69;32.14
42761;BME280;31672;47.638;19.026;2023-07-24T13:08:35;99249.19;;;34.95;31.48
42761;BME280;31672;47.638;19.026;2023-07-24T13:13:38;99234.59;;;34.95;31.45
42761;BME280;31672;47.638;19.026;2023-07-24T13:18:42;99227.97;;;34.83;32.29
42761;BME280;31672;47.638;19.026;2023-07-24T13:23:46;99213.50;;;35.02;32.33
42761;BME280;31672;47.638;19.026;2023-07-24T13:28:50;99209.16;;;35.33;32.50
42761;BME280;31672;47.638;19.026;2023-07-24T13:33:53;99206.94;;;35.54;32.46
42761;BME280;31672;47.638;19.026;2023-07-24T13:38:57;99186.06;;;36.08;33.67
42761;BME280;31672;47.638;19.026;2023-07-24T13:44:00;99169.03;;;36.44;32.52
42761;BME280;31672;47.638;19.026;2023-07-24T13:49:04;99177.19;;;36.37;31.46
42761;BME280;31672;47.638;19.026;2023-07-24T13:54:07;99167.44;;;36.24;32.81
42761;BME280;31672;47.638;19.026;2023-07-24T13:59:11;99164.22;;;36.03;32.00
42761;BME280;31672;47.638;19.026;2023-07-24T14:04:15;99163.53;;;35.55;31.08
42761;BME280;31672;47.638;19.026;2023-07-24T14:09:18;99157.31;;;34.95;31.46
42761;BME280;31672;47.638;19.026;2023-07-24T14:14:22;99144.56;;;34.18;31.96
42761;BME280;31672;47.638;19.026;2023-07-24T14:19:28;99134.47;;;33.58;32.78
42761;BME280;31672;47.638;19.026;2023-07-24T14:24:32;99116.03;;;33.09;34.11
42761;BME280;31672;47.638;19.026;2023-07-24T14:29:35;99123.06;;;32.86;35.15
42761;BME280;31672;47.638;19.026;2023-07-24T14:34:39;99118.34;;;32.62;36.17
42761;BME280;31672;47.638;19.026;2023-07-24T14:39:46;99109.00;;;32.42;35.21
42761;BME280;31672;47.638;19.026;2023-07-24T14:44:50;99100.69;;;32.30;34.29
42761;BME280;31672;47.638;19.026;2023-07-24T14:49:54;99070.78;;;32.16;35.06
42761;BME280;31672;47.638;19.026;2023-07-24T14:54:57;99077.66;;;32.22;35.97
42761;BME280;31672;47.638;19.026;2023-07-24T15:00:01;99073.44;;;32.24;35.27
42761;BME280;31672;47.638;19.026;2023-07-24T15:05:05;99073.50;;;32.49;35.92
42761;BME280;31672;47.638;19.026;2023-07-24T15:10:09;99065.06;;;32.79;34.50
42761;BME280;31672;47.638;19.026;2023-07-24T15:15:13;99051.75;;;32.81;33.67
42761;BME280;31672;47.638;19.026;2023-07-24T15:20:17;99048.22;;;32.68;33.96
42761;BME280;31672;47.638;19.026;2023-07-24T15:25:21;99042.72;;;32.80;34.22
42761;BME280;31672;47.638;19.026;2023-07-24T15:30:25;99027.38;;;33.03;33.68
42761;BME280;31672;47.638;19.026;2023-07-24T15:35:28;99017.00;;;33.49;33.12
42761;BME280;31672;47.638;19.026;2023-07-24T15:40:32;99027.53;;;33.88;33.29
42761;BME280;31672;47.638;19.026;2023-07-24T15:45:37;99026.00;;;34.18;31.85
42761;BME280;31672;47.638;19.026;2023-07-24T15:50:41;99035.41;;;33.73;31.10
42761;BME280;31672;47.638;19.026;2023-07-24T15:55:44;99050.88;;;33.13;32.49
42761;BME280;31672;47.638;19.026;2023-07-24T16:00:48;99028.31;;;32.95;32.77
42761;BME280;31672;47.638;19.026;2023-07-24T16:05:52;99009.03;;;33.08;33.54
42761;BME280;31672;47.638;19.026;2023-07-24T16:10:57;99014.41;;;33.16;33.27
42761;BME280;31672;47.638;19.026;2023-07-24T16:16:01;99002.75;;;32.95;33.55
42761;BME280;31672;47.638;19.026;2023-07-24T16:21:04;99003.63;;;32.74;34.00
42761;BME280;31672;47.638;19.026;2023-07-24T16:26:08;98986.81;;;32.52;34.29
42761;BME280;31672;47.638;19.026;2023-07-24T16:31:12;98993.72;;;32.24;34.81
42761;BME280;31672;47.638;19.026;2023-07-24T16:36:15;98992.50;;;32.01;35.02
42761;BME280;31672;47.638;19.026;2023-07-24T16:41:19;98991.00;;;31.70;35.78
42761;BME280;31672;47.638;19.026;2023-07-24T16:46:23;98969.63;;;31.43;36.89
42761;BME280;31672;47.638;19.026;2023-07-24T16:51:28;99000.88;;;31.30;37.11
42761;BME280;31672;47.638;19.026;2023-07-24T16:56:32;98994.06;;;31.06;38.57
42761;BME280;31672;47.638;19.026;2023-07-24T17:01:36;98989.03;;;30.87;38.80
42761;BME280;31672;47.638;19.026;2023-07-24T17:06:40;98990.41;;;30.73;39.35
42761;BME280;31672;47.638;19.026;2023-07-24T17:11:45;98985.25;;;30.62;39.69
42761;BME280;31672;47.638;19.026;2023-07-24T17:16:49;98978.41;;;30.48;40.05
42761;BME280;31672;47.638;19.026;2023-07-24T17:21:53;98981.50;;;30.37;40.73
42761;BME280;31672;47.638;19.026;2023-07-24T17:26:56;98984.78;;;30.22;41.12
42761;BME280;31672;47.638;19.026;2023-07-24T17:32:00;98987.34;;;30.10;41.68
42761;BME280;31672;47.638;19.026;2023-07-24T17:37:04;98991.56;;;29.99;41.66
42761;BME280;31672;47.638;19.026;2023-07-24T17:42:08;98975.00;;;29.86;41.13
42761;BME280;31672;47.638;19.026;2023-07-24T17:47:12;98971.31;;;29.82;41.42
42761;BME280;31672;47.638;19.026;2023-07-24T17:52:16;98963.09;;;29.74;42.06
42761;BME280;31672;47.638;19.026;2023-07-24T17:57:19;98953.31;;;29.64;41.93
42761;BME280;31672;47.638;19.026;2023-07-24T18:02:24;98949.44;;;29.56;42.05
42761;BME280;31672;47.638;19.026;2023-07-24T18:07:27;98951.22;;;29.52;42.86
42761;BME280;31672;47.638;19.026;2023-07-24T18:12:31;98937.84;;;29.42;42.91
42761;BME280;31672;47.638;19.026;2023-07-24T18:17:35;98935.91;;;29.34;43.27
42761;BME280;31672;47.638;19.026;2023-07-24T18:22:39;98931.41;;;29.29;43.39
42761;BME280;31672;47.638;19.026;2023-07-24T18:27:42;98920.16;;;29.22;44.43
42761;BME280;31672;47.638;19.026;2023-07-24T18:32:46;98914.38;;;29.15;44.44
42761;BME280;31672;47.638;19.026;2023-07-24T18:37:50;98926.59;;;29.09;44.96
42761;BME280;31672;47.638;19.026;2023-07-24T18:42:53;98934.28;;;28.98;45.47
42761;BME280;31672;47.638;19.026;2023-07-24T18:47:57;98958.41;;;28.96;46.06
42761;BME280;31672;47.638;19.026;2023-07-24T18:53:02;98937.78;;;28.90;46.21
42761;BME280;31672;47.638;19.026;2023-07-24T18:58:06;98942.91;;;28.83;46.65
42761;BME280;31672;47.638;19.026;2023-07-24T19:03:10;98950.31;;;28.74;47.47
42761;BME280;31672;47.638;19.026;2023-07-24T19:08:14;98954.13;;;28.64;47.90
42761;BME280;31672;47.638;19.026;2023-07-24T19:13:18;98951.53;;;28.59;48.72
42761;BME280;31672;47.638;19.026;2023-07-24T19:18:22;98948.78;;;28.50;49.91
42761;BME280;31672;47.638;19.026;2023-07-24T19:23:25;98950.88;;;28.45;50.10
42761;BME280;31672;47.638;19.026;2023-07-24T19:28:29;98945.53;;;28.40;50.79
42761;BME280;31672;47.638;19.026;2023-07-24T19:33:32;98942.13;;;28.34;51.62
42761;BME280;31672;47.638;19.026;2023-07-24T19:38:36;98937.44;;;28.26;52.21
42761;BME280;31672;47.638;19.026;2023-07-24T19:43:39;98935.97;;;28.20;52.49
42761;BME280;31672;47.638;19.026;2023-07-24T19:48:43;98920.97;;;28.09;53.46
42761;BME280;31672;47.638;19.026;2023-07-24T19:53:47;98922.84;;;27.99;54.06
42761;BME280;31672;47.638;19.026;2023-07-24T19:58:51;98935.81;;;27.94;54.40
42761;BME280;31672;47.638;19.026;2023-07-24T20:03:54;98928.50;;;27.81;54.94
42761;BME280;31672;47.638;19.026;2023-07-24T20:08:58;98926.22;;;27.74;54.50
42761;BME280;31672;47.638;19.026;2023-07-24T20:14:03;98913.72;;;27.73;53.75
42761;BME280;31672;47.638;19.026;2023-07-24T20:19:07;98876.31;;;27.73;52.07
42761;BME280;31672;47.638;19.026;2023-07-24T20:24:12;98901.22;;;27.81;49.74
42761;BME280;31672;47.638;19.026;2023-07-24T20:29:17;98906.22;;;27.87;49.97
42761;BME280;31672;47.638;19.026;2023-07-24T20:34:21;98874.91;;;27.85;50.59
42761;BME280;31672;47.638;19.026;2023-07-24T20:39:24;98902.31;;;27.71;51.43
42761;BME280;31672;47.638;19.026;2023-07-24T20:44:29;98888.22;;;27.55;51.70
42761;BME280;31672;47.638;19.026;2023-07-24T20:49:32;98893.75;;;27.41;51.91
42761;BME280;31672;47.638;19.026;2023-07-24T20:54:37;98889.94;;;27.29;52.39
42761;BME280;31672;47.638;19.026;2023-07-24T20:59:41;98876.69;;;27.13;51.78
42761;BME280;31672;47.638;19.026;2023-07-24T21:04:45;98894.66;;;27.01;52.06
42761;BME280;31672;47.638;19.026;2023-07-24T21:09:49;98879.75;;;26.84;52.83
42761;BME280;31672;47.638;19.026;2023-07-24T21:14:56;98884.94;;;26.72;52.89
42761;BME280;31672;47.638;19.026;2023-07-24T21:19:59;98892.34;;;26.58;53.53
42761;BME280;31672;47.638;19.026;2023-07-24T21:25:03;98892.06;;;26.46;53.33
42761;BME280;31672;47.638;19.026;2023-07-24T21:30:08;98921.69;;;26.33;53.47
42761;BME280;31672;47.638;19.026;2023-07-24T21:35:12;98932.16;;;26.26;52.99
42761;BME280;31672;47.638;19.026;2023-07-24T21:40:15;98932.78;;;26.23;52.43
42761;BME280;31672;47.638;19.026;2023-07-24T21:45:19;98954.56;;;26.23;51.72
42761;BME280;31672;47.638;19.026;2023-07-24T21:50:23;98967.06;;;26.24;51.09
42761;BME280;31672;47.638;19.026;2023-07-24T21:55:26;98958.38;;;26.22;50.81
42761;BME280;31672;47.638;19.026;2023-07-24T22:00:30;98975.53;;;26.23;49.91
42761;BME280;31672;47.638;19.026;2023-07-24T22:05:33;98977.44;;;26.22;50.35
42761;BME280;31672;47.638;19.026;2023-07-24T22:10:37;98993.06;;;26.17;50.19
42761;BME280;31672;47.638;19.026;2023-07-24T22:15:41;98986.41;;;26.09;50.25
42761;BME280;31672;47.638;19.026;2023-07-24T22:20:44;98987.56;;;26.03;50.31
42761;BME280;31672;47.638;19.026;2023-07-24T22:25:48;98979.22;;;25.99;50.59
42761;BME280;31672;47.638;19.026;2023-07-24T22:30:51;98990.19;;;25.94;50.32
42761;BME280;31672;47.638;19.026;2023-07-24T22:35:58;98992.97;;;25.89;50.97
42761;BME280;31672;47.638;19.026;2023-07-24T22:41:10;98994.41;;;25.86;50.78
42761;BME280;31672;47.638;19.026;2023-07-24T22:46:13;98975.34;;;25.86;50.55
42761;BME280;31672;47.638;19.026;2023-07-24T22:51:17;98954.69;;;25.85;50.61
42761;BME280;31672;47.638;19.026;2023-07-24T22:56:21;98913.66;;;25.82;51.10
42761;BME280;31672;47.638;19.026;2023-07-24T23:01:29;98907.53;;;25.71;50.57
42761;BME280;31672;47.638;19.026;2023-07-24T23:06:33;98919.63;;;25.65;50.76
42761;BME280;31672;47.638;19.026;2023-07-24T23:11:37;98967.84;;;25.59;50.04
42761;BME280;31672;47.638;19.026;2023-07-24T23:16:41;98961.69;;;25.54;48.90
42761;BME280;31672;47.638;19.026;2023-07-24T23:21:44;98990.88;;;25.48;47.96
42761;BME280;31672;47.638;19.026;2023-07-24T23:26:47;99002.72;;;25.39;47.82
42761;BME280;31672;47.638;19.026;2023-07-24T23:31:53;99031.16;;;25.27;47.26
42761;BME280;31672;47.638;19.026;2023-07-24T23:36:58;99034.53;;;25.19;47.02
42761;BME280;31672;47.638;19.026;2023-07-24T23:42:01;99044.94;;;25.12;46.79
42761;BME280;31672;47.638;19.026;2023-07-24T23:47:05;99068.91;;;25.10;46.83
42761;BME280;31672;47.638;19.026;2023-07-24T23:52:09;99071.56;;;25.15;47.25
42761;BME280;31672;47.638;19.026;2023-07-24T23:57:12;99076.41;;;25.18;47.11
